sensor_id;sensor_type;location;lat;lon;timestamp;temperature;humidity
36444;DHT22;24692;45.642;13.806;2023-05-21T00:01:39;20.00;99.90
36444;DHT22;24692;45.642;13.806;2023-05-21T00:04:05;19.90;99.90
36444;DHT22;24692;45.642;13.806;2023-05-21T00:06:35;19.90;99.90
36444;DHT22;24692;45.642;13.806;2023-05-21T00:09:02;19.90;99.90
36444;DHT22;24692;45.642;13.806;2023-05-21T00:11:28;19.90;99.90
36444;DHT22;24692;45.642;13.806;2023-05-21T00:13:53;19.90;99.90
36444;DHT22;24692;45.642;13.806;2023-05-21T00:16:20;19.90;99.90
36444;DHT22;24692;45.642;13.806;2023-05-21T00:18:45;19.90;99.90
36444;DHT22;24692;45.642;13.806;2023-05-21T00:21:14;19.90;99.90
36444;DHT22;24692;45.642;13.806;2023-05-21T00:23:42;19.90;99.90
36444;DHT22;24692;45.642;13.806;2023-05-21T00:26:08;19.90;99.90
36444;DHT22;24692;45.642;13.806;2023-05-21T00:28:33;19.80;99.90
36444;DHT22;24692;45.642;13.806;2023-05-21T00:31:00;19.80;99.90
36444;DHT22;24692;45.642;13.806;2023-05-21T00:33:26;19.80;99.90
36444;DHT22;24692;45.642;13.806;2023-05-21T00:35:53;19.80;99.90
36444;DHT22;24692;45.642;13.806;2023-05-21T00:38:19;19.80;99.90
36444;DHT22;24692;45.642;13.806;2023-05-21T00:40:46;19.80;99.90
36444;DHT22;24692;45.642;13.806;2023-05-21T00:43:12;19.80;99.90
36444;DHT22;24692;45.642;13.806;2023-05-21T00:45:39;19.80;99.90
36444;DHT22;24692;45.642;13.806;2023-05-21T00:48:07;19.90;99.90
36444;DHT22;24692;45.642;13.806;2023-05-21T00:50:33;19.80;99.90
36444;DHT22;24692;45.642;13.806;2023-05-21T00:53:00;19.80;99.90
36444;DHT22;24692;45.642;13.806;2023-05-21T00:55:26;19.80;99.90
36444;DHT22;24692;45.642;13.806;2023-05-21T00:57:52;19.80;99.90
36444;DHT22;24692;45.642;13.806;2023-05-21T01:00:18;19.90;99.90
36444;DHT22;24692;45.642;13.806;2023-05-21T01:02:45;19.90;99.90
36444;DHT22;24692;45.642;13.806;2023-05-21T01:05:11;19.90;99.90
36444;DHT22;24692;45.642;13.806;2023-05-21T01:07:39;19.80;99.90
36444;DHT22;24692;45.642;13.806;2023-05-21T01:10:07;19.80;99.90
36444;DHT22;24692;45.642;13.806;2023-05-21T01:12:34;19.70;99.90
36444;DHT22;24692;45.642;13.806;2023-05-21T01:15:01;19.60;99.90
36444;DHT22;24692;45.642;13.806;2023-05-21T01:17:28;19.60;99.90
36444;DHT22;24692;45.642;13.806;2023-05-21T01:19:59;19.60;99.90
36444;DHT22;24692;45.642;13.806;2023-05-21T01:22:27;19.50;99.90
36444;DHT22;24692;45.642;13.806;2023-05-21T01:24:53;19.60;99.90
36444;DHT22;24692;45.642;13.806;2023-05-21T01:27:20;19.50;99.90
36444;DHT22;24692;45.642;13.806;2023-05-21T01:29:45;19.60;99.90
36444;DHT22;24692;45.642;13.806;2023-05-21T01:32:32;19.90;99.90
36444;DHT22;24692;45.642;13.806;2023-05-21T01:35:12;20.00;99.90
36444;DHT22;24692;45.642;13.806;2023-05-21T01:37:45;20.10;99.90
36444;DHT22;24692;45.642;13.806;2023-05-21T01:40:21;20.10;99.90
36444;DHT22;24692;45.642;13.806;2023-05-21T01:42:47;20.00;99.90
36444;DHT22;24692;45.642;13.806;2023-05-21T01:45:16;19.90;99.90
36444;DHT22;24692;45.642;13.806;2023-05-21T01:47:46;19.80;99.90
36444;DHT22;24692;45.642;13.806;2023-05-21T01:50:14;19.70;99.90
36444;DHT22;24692;45.642;13.806;2023-05-21T01:52:48;19.60;99.90
36444;DHT22;24692;45.642;13.806;2023-05-21T01:55:14;19.60;99.90
36444;DHT22;24692;45.642;13.806;2023-05-21T01:57:40;19.50;99.90
36444;DHT22;24692;45.642;13.806;2023-05-21T02:00:06;19.60;99.90
36444;DHT22;24692;45.642;13.806;2023-05-21T02:02:32;19.50;99.90
36444;DHT22;24692;45.642;13.806;2023-05-21T02:04:57;19.40;99.90
36444;DHT22;24692;45.642;13.806;2023-05-21T02:07:45;19.40;99.90
36444;DHT22;24692;45.642;13.806;2023-05-21T02:10:11;19.30;99.90
36444;DHT22;24692;45.642;13.806;2023-05-21T02:12:58;19.20;99.90
36444;DHT22;24692;45.642;13.806;2023-05-21T02:15:25;19.10;99.90
36444;DHT22;24692;45.642;13.806;2023-05-21T02:17:53;18.90;99.90
36444;DHT22;24692;45.642;13.806;2023-05-21T02:20:22;18.90;99.90
36444;DHT22;24692;45.642;13.806;2023-05-21T02:22:48;18.90;99.90
36444;DHT22;24692;45.642;13.806;2023-05-21T02:25:16;18.80;99.90
36444;DHT22;24692;45.642;13.806;2023-05-21T02:27:44;18.80;99.90
36444;DHT22;24692;45.642;13.806;2023-05-21T02:30:14;18.70;99.90
36444;DHT22;24692;45.642;13.806;2023-05-21T02:32:42;18.60;99.90
36444;DHT22;24692;45.642;13.806;2023-05-21T02:35:11;18.50;99.90
36444;DHT22;24692;45.642;13.806;2023-05-21T02:37:39;18.50;99.90
36444;DHT22;24692;45.642;13.806;2023-05-21T02:40:08;18.50;99.90
36444;DHT22;24692;45.642;13.806;2023-05-21T02:42:34;18.40;99.90
36444;DHT22;24692;45.642;13.806;2023-05-21T02:45:01;18.40;99.90
36444;DHT22;24692;45.642;13.806;2023-05-21T02:47:27;18.50;99.90
36444;DHT22;24692;45.642;13.806;2023-05-21T02:49:53;18.70;99.90
36444;DHT22;24692;45.642;13.806;2023-05-21T02:52:19;18.70;99.90
36444;DHT22;24692;45.642;13.806;2023-05-21T02:54:48;18.60;99.90
36444;DHT22;24692;45.642;13.806;2023-05-21T02:57:14;18.60;99.90
36444;DHT22;24692;45.642;13.806;2023-05-21T02:59:40;18.60;99.90
36444;DHT22;24692;45.642;13.806;2023-05-21T03:02:05;18.60;99.90
36444;DHT22;24692;45.642;13.806;2023-05-21T03:04:31;18.60;99.90
36444;DHT22;24692;45.642;13.806;2023-05-21T03:06:57;18.50;99.90
36444;DHT22;24692;45.642;13.806;2023-05-21T03:09:26;18.50;99.90
36444;DHT22;24692;45.642;13.806;2023-05-21T03:11:52;18.50;99.90
36444;DHT22;24692;45.642;13.806;2023-05-21T03:14:18;18.40;99.90
36444;DHT22;24692;45.642;13.806;2023-05-21T03:16:43;18.40;99.90
36444;DHT22;24692;45.642;13.806;2023-05-21T03:19:10;18.50;99.90
36444;DHT22;24692;45.642;13.806;2023-05-21T03:21:36;18.70;99.90
36444;DHT22;24692;45.642;13.806;2023-05-21T03:24:05;18.70;99.90
36444;DHT22;24692;45.642;13.806;2023-05-21T03:26:31;18.80;99.90
36444;DHT22;24692;45.642;13.806;2023-05-21T03:28:57;18.80;99.90
36444;DHT22;24692;45.642;13.806;2023-05-21T03:31:26;18.90;99.90
36444;DHT22;24692;45.642;13.806;2023-05-21T03:33:51;18.90;99.90
36444;DHT22;24692;45.642;13.806;2023-05-21T03:36:18;18.90;99.90
36444;DHT22;24692;45.642;13.806;2023-05-21T03:38:44;18.90;99.90
36444;DHT22;24692;45.642;13.806;2023-05-21T03:41:10;19.00;99.90
36444;DHT22;24692;45.642;13.806;2023-05-21T03:43:36;18.90;99.90
36444;DHT22;24692;45.642;13.806;2023-05-21T03:46:02;18.90;99.90
36444;DHT22;24692;45.642;13.806;2023-05-21T03:48:27;18.90;99.90
36444;DHT22;24692;45.642;13.806;2023-05-21T03:50:53;18.90;99.90
36444;DHT22;24692;45.642;13.806;2023-05-21T03:53:18;18.90;99.90
36444;DHT22;24692;45.642;13.806;2023-05-21T03:55:44;19.00;99.90
36444;DHT22;24692;45.642;13.806;2023-05-21T03:58:10;19.00;99.90
36444;DHT22;24692;45.642;13.806;2023-05-21T04:00:39;19.00;99.90
36444;DHT22;24692;45.642;13.806;2023-05-21T04:03:05;19.00;99.90
36444;DHT22;24692;45.642;13.806;2023-05-21T04:05:31;19.00;99.90
36444;DHT22;24692;45.642;13.806;2023-05-21T04:07:58;19.00;99.90
36444;DHT22;24692;45.642;13.806;2023-05-21T04:10:24;19.10;99.90
36444;DHT22;24692;45.642;13.806;2023-05-21T04:12:51;19.00;99.90
36444;DHT22;24692;45.642;13.806;2023-05-21T04:15:17;19.10;99.90
36444;DHT22;24692;45.642;13.806;2023-05-21T04:17:44;19.00;99.90
36444;DHT22;24692;45.642;13.806;2023-05-21T04:20:11;19.10;99.90
36444;DHT22;24692;45.642;13.806;2023-05-21T04:22:38;19.10;99.90
36444;DHT22;24692;45.642;13.806;2023-05-21T04:25:04;19.10;99.90
36444;DHT22;24692;45.642;13.806;2023-05-21T04:27:30;19.10;99.90
36444;DHT22;24692;45.642;13.806;2023-05-21T04:29:56;19.10;99.90
36444;DHT22;24692;45.642;13.806;2023-05-21T04:32:22;19.20;99.90
36444;DHT22;24692;45.642;13.806;2023-05-21T04:34:48;19.20;99.90
36444;DHT22;24692;45.642;13.806;2023-05-21T04:37:14;19.20;99.90
36444;DHT22;24692;45.642;13.806;2023-05-21T04:39:42;19.30;99.90
36444;DHT22;24692;45.642;13.806;2023-05-21T04:42:08;19.30;99.90
36444;DHT22;24692;45.642;13.806;2023-05-21T04:44:35;19.30;99.90
36444;DHT22;24692;45.642;13.806;2023-05-21T04:47:02;19.30;99.90
36444;DHT22;24692;45.642;13.806;2023-05-21T04:49:28;19.40;99.90
36444;DHT22;24692;45.642;13.806;2023-05-21T04:51:54;19.40;99.90
36444;DHT22;24692;45.642;13.806;2023-05-21T04:54:20;19.50;99.90
36444;DHT22;24692;45.642;13.806;2023-05-21T04:56:46;19.50;99.90
36444;DHT22;24692;45.642;13.806;2023-05-21T04:59:12;19.60;99.90
36444;DHT22;24692;45.642;13.806;2023-05-21T05:01:38;19.60;99.90
36444;DHT22;24692;45.642;13.806;2023-05-21T05:04:04;19.70;99.90
36444;DHT22;24692;45.642;13.806;2023-05-21T05:06:30;19.70;99.90
36444;DHT22;24692;45.642;13.806;2023-05-21T05:08:56;19.70;99.90
36444;DHT22;24692;45.642;13.806;2023-05-21T05:11:21;19.80;99.90
36444;DHT22;24692;45.642;13.806;2023-05-21T05:13:47;19.90;99.90
36444;DHT22;24692;45.642;13.806;2023-05-21T05:16:13;19.90;99.90
36444;DHT22;24692;45.642;13.806;2023-05-21T05:18:41;20.00;99.90
36444;DHT22;24692;45.642;13.806;2023-05-21T05:21:07;20.10;99.90
36444;DHT22;24692;45.642;13.806;2023-05-21T05:23:33;20.10;99.90
36444;DHT22;24692;45.642;13.806;2023-05-21T05:25:58;20.10;99.90
36444;DHT22;24692;45.642;13.806;2023-05-21T05:28:24;20.20;99.90
36444;DHT22;24692;45.642;13.806;2023-05-21T05:30:50;20.20;99.90
36444;DHT22;24692;45.642;13.806;2023-05-21T05:33:15;20.30;99.90
36444;DHT22;24692;45.642;13.806;2023-05-21T05:35:41;20.30;99.90
36444;DHT22;24692;45.642;13.806;2023-05-21T05:38:07;20.30;99.90
36444;DHT22;24692;45.642;13.806;2023-05-21T05:40:33;20.40;99.90
36444;DHT22;24692;45.642;13.806;2023-05-21T05:42:59;20.40;99.90
36444;DHT22;24692;45.642;13.806;2023-05-21T05:45:24;20.50;99.90
36444;DHT22;24692;45.642;13.806;2023-05-21T05:47:51;20.50;99.90
36444;DHT22;24692;45.642;13.806;2023-05-21T05:50:17;20.60;99.90
36444;DHT22;24692;45.642;13.806;2023-05-21T05:52:42;20.60;99.90
36444;DHT22;24692;45.642;13.806;2023-05-21T05:55:08;20.70;99.90
36444;DHT22;24692;45.642;13.806;2023-05-21T05:57:37;20.60;99.90
36444;DHT22;24692;45.642;13.806;2023-05-21T06:00:03;20.70;99.90
36444;DHT22;24692;45.642;13.806;2023-05-21T06:02:29;20.80;99.90
36444;DHT22;24692;45.642;13.806;2023-05-21T06:04:55;20.80;99.90
36444;DHT22;24692;45.642;13.806;2023-05-21T06:07:20;20.80;99.90
36444;DHT22;24692;45.642;13.806;2023-05-21T06:09:46;20.80;99.90
36444;DHT22;24692;45.642;13.806;2023-05-21T06:12:11;20.80;99.90
36444;DHT22;24692;45.642;13.806;2023-05-21T06:14:40;20.90;99.90
36444;DHT22;24692;45.642;13.806;2023-05-21T06:17:06;20.90;99.90
36444;DHT22;24692;45.642;13.806;2023-05-21T06:19:32;21.00;99.90
36444;DHT22;24692;45.642;13.806;2023-05-21T06:21:57;21.00;99.90
36444;DHT22;24692;45.642;13.806;2023-05-21T06:24:23;21.10;99.90
36444;DHT22;24692;45.642;13.806;2023-05-21T06:26:49;21.00;99.90
36444;DHT22;24692;45.642;13.806;2023-05-21T06:29:14;20.90;99.90
36444;DHT22;24692;45.642;13.806;2023-05-21T06:31:42;20.80;99.90
36444;DHT22;24692;45.642;13.806;2023-05-21T06:34:07;20.80;99.90
36444;DHT22;24692;45.642;13.806;2023-05-21T06:36:33;20.80;99.90
36444;DHT22;24692;45.642;13.806;2023-05-21T06:38:59;20.80;99.90
36444;DHT22;24692;45.642;13.806;2023-05-21T06:41:25;20.80;99.90
36444;DHT22;24692;45.642;13.806;2023-05-21T06:43:51;20.80;99.90
36444;DHT22;24692;45.642;13.806;2023-05-21T06:46:16;20.80;99.90
36444;DHT22;24692;45.642;13.806;2023-05-21T06:48:43;20.90;99.90
36444;DHT22;24692;45.642;13.806;2023-05-21T06:51:09;21.00;99.90
36444;DHT22;24692;45.642;13.806;2023-05-21T06:53:34;21.20;99.90
36444;DHT22;24692;45.642;13.806;2023-05-21T06:56:00;21.30;99.90
36444;DHT22;24692;45.642;13.806;2023-05-21T06:58:25;21.50;99.90
36444;DHT22;24692;45.642;13.806;2023-05-21T07:00:58;21.70;99.90
36444;DHT22;24692;45.642;13.806;2023-05-21T07:03:24;21.80;99.90
36444;DHT22;24692;45.642;13.806;2023-05-21T07:05:50;21.90;99.90
36444;DHT22;24692;45.642;13.806;2023-05-21T07:08:15;22.00;99.90
36444;DHT22;24692;45.642;13.806;2023-05-21T07:10:41;22.10;99.90
36444;DHT22;24692;45.642;13.806;2023-05-21T07:13:07;22.30;99.90
36444;DHT22;24692;45.642;13.806;2023-05-21T07:15:33;22.40;99.90
36444;DHT22;24692;45.642;13.806;2023-05-21T07:17:58;22.30;99.90
36444;DHT22;24692;45.642;13.806;2023-05-21T07:20:24;22.40;99.90
36444;DHT22;24692;45.642;13.806;2023-05-21T07:22:49;22.60;99.90
36444;DHT22;24692;45.642;13.806;2023-05-21T07:25:15;22.50;99.90
36444;DHT22;24692;45.642;13.806;2023-05-21T07:27:41;22.60;99.90
36444;DHT22;24692;45.642;13.806;2023-05-21T07:30:08;23.00;99.90
36444;DHT22;24692;45.642;13.806;2023-05-21T07:32:34;23.10;99.90
36444;DHT22;24692;45.642;13.806;2023-05-21T07:35:00;23.20;99.90
36444;DHT22;24692;45.642;13.806;2023-05-21T07:37:28;23.30;99.90
36444;DHT22;24692;45.642;13.806;2023-05-21T07:39:57;23.60;99.90
36444;DHT22;24692;45.642;13.806;2023-05-21T07:42:24;23.80;99.90
36444;DHT22;24692;45.642;13.806;2023-05-21T07:44:50;23.90;99.90
36444;DHT22;24692;45.642;13.806;2023-05-21T07:47:15;24.20;99.90
36444;DHT22;24692;45.642;13.806;2023-05-21T07:49:41;24.50;99.90
36444;DHT22;24692;45.642;13.806;2023-05-21T07:52:06;24.70;99.90
36444;DHT22;24692;45.642;13.806;2023-05-21T07:54:32;24.60;99.90
36444;DHT22;24692;45.642;13.806;2023-05-21T07:56:58;24.80;99.90
36444;DHT22;24692;45.642;13.806;2023-05-21T07:59:24;24.90;99.90
36444;DHT22;24692;45.642;13.806;2023-05-21T08:01:50;24.80;99.90
36444;DHT22;24692;45.642;13.806;2023-05-21T08:04:16;24.70;99.90
36444;DHT22;24692;45.642;13.806;2023-05-21T08:06:41;24.80;99.90
36444;DHT22;24692;45.642;13.806;2023-05-21T08:09:07;25.10;99.90
36444;DHT22;24692;45.642;13.806;2023-05-21T08:11:33;25.50;99.90
36444;DHT22;24692;45.642;13.806;2023-05-21T08:13:58;26.00;99.90
36444;DHT22;24692;45.642;13.806;2023-05-21T08:16:24;26.30;99.90
36444;DHT22;24692;45.642;13.806;2023-05-21T08:18:50;25.80;99.90
36444;DHT22;24692;45.642;13.806;2023-05-21T08:21:16;26.30;99.90
36444;DHT22;24692;45.642;13.806;2023-05-21T08:23:42;25.90;99.90
36444;DHT22;24692;45.642;13.806;2023-05-21T08:26:08;25.50;99.90
36444;DHT22;24692;45.642;13.806;2023-05-21T08:28:37;26.00;99.90
36444;DHT22;24692;45.642;13.806;2023-05-21T08:31:03;26.90;99.90
36444;DHT22;24692;45.642;13.806;2023-05-21T08:33:28;27.20;99.90
36444;DHT22;24692;45.642;13.806;2023-05-21T08:35:54;27.30;99.90
36444;DHT22;24692;45.642;13.806;2023-05-21T08:38:20;28.30;99.90
36444;DHT22;24692;45.642;13.806;2023-05-21T08:40:45;28.30;99.90
36444;DHT22;24692;45.642;13.806;2023-05-21T08:43:12;28.40;99.90
36444;DHT22;24692;45.642;13.806;2023-05-21T08:45:44;28.40;99.90
36444;DHT22;24692;45.642;13.806;2023-05-21T08:48:12;28.30;99.90
36444;DHT22;24692;45.642;13.806;2023-05-21T08:50:40;28.90;99.90
36444;DHT22;24692;45.642;13.806;2023-05-21T08:53:07;28.70;99.90
36444;DHT22;24692;45.642;13.806;2023-05-21T08:55:34;28.70;99.90
36444;DHT22;24692;45.642;13.806;2023-05-21T08:58:02;28.90;99.90
36444;DHT22;24692;45.642;13.806;2023-05-21T09:00:28;29.60;99.90
36444;DHT22;24692;45.642;13.806;2023-05-21T09:02:54;30.40;99.90
36444;DHT22;24692;45.642;13.806;2023-05-21T09:05:21;30.00;99.90
36444;DHT22;24692;45.642;13.806;2023-05-21T09:08:00;30.10;99.90
36444;DHT22;24692;45.642;13.806;2023-05-21T09:10:34;30.20;99.90
36444;DHT22;24692;45.642;13.806;2023-05-21T09:13:02;30.70;99.90
36444;DHT22;24692;45.642;13.806;2023-05-21T09:15:27;30.50;99.90
36444;DHT22;24692;45.642;13.806;2023-05-21T09:17:53;29.90;99.90
36444;DHT22;24692;45.642;13.806;2023-05-21T09:20:23;29.80;99.90
36444;DHT22;24692;45.642;13.806;2023-05-21T09:22:51;30.00;99.90
36444;DHT22;24692;45.642;13.806;2023-05-21T09:25:25;30.70;99.90
36444;DHT22;24692;45.642;13.806;2023-05-21T09:27:57;30.00;99.90
36444;DHT22;24692;45.642;13.806;2023-05-21T09:30:23;29.50;99.90
36444;DHT22;24692;45.642;13.806;2023-05-21T09:32:55;29.40;99.90
36444;DHT22;24692;45.642;13.806;2023-05-21T09:35:21;29.80;99.90
36444;DHT22;24692;45.642;13.806;2023-05-21T09:37:48;30.10;99.90
36444;DHT22;24692;45.642;13.806;2023-05-21T09:40:16;29.80;99.90
36444;DHT22;24692;45.642;13.806;2023-05-21T09:42:49;30.30;99.90
36444;DHT22;24692;45.642;13.806;2023-05-21T09:47:45;29.60;99.90
36444;DHT22;24692;45.642;13.806;2023-05-21T09:50:22;29.80;99.90
36444;DHT22;24692;45.642;13.806;2023-05-21T09:52:49;29.90;99.90
36444;DHT22;24692;45.642;13.806;2023-05-21T09:55:17;30.30;99.90
36444;DHT22;24692;45.642;13.806;2023-05-21T09:57:44;30.60;99.90
36444;DHT22;24692;45.642;13.806;2023-05-21T10:02:47;31.10;99.90
36444;DHT22;24692;45.642;13.806;2023-05-21T10:05:14;30.60;99.90
36444;DHT22;24692;45.642;13.806;2023-05-21T10:07:51;30.80;99.90
36444;DHT22;24692;45.642;13.806;2023-05-21T10:10:21;30.10;99.90
36444;DHT22;24692;45.642;13.806;2023-05-21T10:13:09;30.60;99.90
36444;DHT22;24692;45.642;13.806;2023-05-21T10:15:38;31.00;99.90
36444;DHT22;24692;45.642;13.806;2023-05-21T10:18:08;31.50;99.90
36444;DHT22;24692;45.642;13.806;2023-05-21T10:20:35;31.60;99.90
36444;DHT22;24692;45.642;13.806;2023-05-21T10:23:02;31.80;99.90
36444;DHT22;24692;45.642;13.806;2023-05-21T10:25:28;31.90;99.90
36444;DHT22;24692;45.642;13.806;2023-05-21T10:27:56;31.60;99.90
36444;DHT22;24692;45.642;13.806;2023-05-21T10:30:23;30.60;99.90
36444;DHT22;24692;45.642;13.806;2023-05-21T10:32:49;30.80;99.90
36444;DHT22;24692;45.642;13.806;2023-05-21T10:35:15;31.10;99.90
36444;DHT22;24692;45.642;13.806;2023-05-21T10:37:43;31.40;99.90
36444;DHT22;24692;45.642;13.806;2023-05-21T10:40:10;31.30;99.90
36444;DHT22;24692;45.642;13.806;2023-05-21T10:43:08;30.90;99.90
36444;DHT22;24692;45.642;13.806;2023-05-21T10:45:42;31.30;99.90
36444;DHT22;24692;45.642;13.806;2023-05-21T10:48:22;32.30;99.90
36444;DHT22;24692;45.642;13.806;2023-05-21T10:51:14;31.50;99.90
36444;DHT22;24692;45.642;13.806;2023-05-21T10:56:43;31.30;99.90
36444;DHT22;24692;45.642;13.806;2023-05-21T10:59:38;31.90;99.90
36444;DHT22;24692;45.642;13.806;2023-05-21T11:02:05;33.00;99.90
36444;DHT22;24692;45.642;13.806;2023-05-21T11:04:32;32.80;99.90
36444;DHT22;24692;45.642;13.806;2023-05-21T11:06:59;33.20;99.90
36444;DHT22;24692;45.642;13.806;2023-05-21T11:09:25;33.90;99.90
36444;DHT22;24692;45.642;13.806;2023-05-21T11:11:52;33.50;99.90
36444;DHT22;24692;45.642;13.806;2023-05-21T11:14:39;33.10;99.90
36444;DHT22;24692;45.642;13.806;2023-05-21T11:19:45;32.20;99.90
36444;DHT22;24692;45.642;13.806;2023-05-21T11:22:24;32.40;99.90
36444;DHT22;24692;45.642;13.806;2023-05-21T11:24:51;33.00;99.90
36444;DHT22;24692;45.642;13.806;2023-05-21T11:27:37;32.90;99.90
36444;DHT22;24692;45.642;13.806;2023-05-21T11:30:17;32.70;99.90
36444;DHT22;24692;45.642;13.806;2023-05-21T11:35:57;32.80;99.90
36444;DHT22;24692;45.642;13.806;2023-05-21T11:38:27;32.90;99.90
36444;DHT22;24692;45.642;13.806;2023-05-21T11:40:54;33.60;99.90
36444;DHT22;24692;45.642;13.806;2023-05-21T11:43:20;34.30;99.70
36444;DHT22;24692;45.642;13.806;2023-05-21T11:45:45;34.20;99.10
36444;DHT22;24692;45.642;13.806;2023-05-21T11:48:15;33.40;98.20
36444;DHT22;24692;45.642;13.806;2023-05-21T11:50:40;32.50;99.70
36444;DHT22;24692;45.642;13.806;2023-05-21T11:53:07;33.40;99.80
36444;DHT22;24692;45.642;13.806;2023-05-21T11:55:37;33.50;98.70
36444;DHT22;24692;45.642;13.806;2023-05-21T11:58:05;33.50;99.50
36444;DHT22;24692;45.642;13.806;2023-05-21T12:00:37;32.70;99.90
36444;DHT22;24692;45.642;13.806;2023-05-21T12:03:06;33.20;98.50
36444;DHT22;24692;45.642;13.806;2023-05-21T12:05:48;32.80;98.20
36444;DHT22;24692;45.642;13.806;2023-05-21T12:08:23;32.60;99.30
36444;DHT22;24692;45.642;13.806;2023-05-21T12:10:58;33.10;98.90
36444;DHT22;24692;45.642;13.806;2023-05-21T12:13:24;33.30;97.30
36444;DHT22;24692;45.642;13.806;2023-05-21T12:15:52;33.40;97.60
36444;DHT22;24692;45.642;13.806;2023-05-21T12:18:18;33.90;97.10
36444;DHT22;24692;45.642;13.806;2023-05-21T12:20:45;34.20;97.40
36444;DHT22;24692;45.642;13.806;2023-05-21T12:23:29;34.30;96.30
36444;DHT22;24692;45.642;13.806;2023-05-21T12:25:55;33.50;96.70
36444;DHT22;24692;45.642;13.806;2023-05-21T12:28:22;34.00;97.10
36444;DHT22;24692;45.642;13.806;2023-05-21T12:30:49;33.50;96.60
36444;DHT22;24692;45.642;13.806;2023-05-21T12:33:15;34.30;96.10
36444;DHT22;24692;45.642;13.806;2023-05-21T12:35:45;34.00;96.40
36444;DHT22;24692;45.642;13.806;2023-05-21T12:38:13;34.80;96.50
36444;DHT22;24692;45.642;13.806;2023-05-21T12:40:38;35.40;95.60
36444;DHT22;24692;45.642;13.806;2023-05-21T12:43:05;34.30;94.60
36444;DHT22;24692;45.642;13.806;2023-05-21T12:45:31;33.30;96.40
36444;DHT22;24692;45.642;13.806;2023-05-21T12:48:00;32.90;96.30
36444;DHT22;24692;45.642;13.806;2023-05-21T12:50:26;32.10;96.60
36444;DHT22;24692;45.642;13.806;2023-05-21T12:52:55;31.20;97.10
36444;DHT22;24692;45.642;13.806;2023-05-21T12:55:23;30.60;97.70
36444;DHT22;24692;45.642;13.806;2023-05-21T12:57:52;30.50;97.40
36444;DHT22;24692;45.642;13.806;2023-05-21T13:00:24;30.70;97.20
36444;DHT22;24692;45.642;13.806;2023-05-21T13:02:50;31.70;98.10
36444;DHT22;24692;45.642;13.806;2023-05-21T13:05:17;33.10;97.10
36444;DHT22;24692;45.642;13.806;2023-05-21T13:07:43;33.90;95.20
36444;DHT22;24692;45.642;13.806;2023-05-21T13:10:11;34.80;94.80
36444;DHT22;24692;45.642;13.806;2023-05-21T13:12:37;34.90;94.60
36444;DHT22;24692;45.642;13.806;2023-05-21T13:15:04;34.00;93.90
36444;DHT22;24692;45.642;13.806;2023-05-21T13:17:30;32.30;95.40
36444;DHT22;24692;45.642;13.806;2023-05-21T13:20:13;31.90;96.40
36444;DHT22;24692;45.642;13.806;2023-05-21T13:22:57;31.70;96.80
36444;DHT22;24692;45.642;13.806;2023-05-21T13:25:24;31.20;97.00
36444;DHT22;24692;45.642;13.806;2023-05-21T13:27:53;30.50;98.30
36444;DHT22;24692;45.642;13.806;2023-05-21T13:30:20;31.30;97.70
36444;DHT22;24692;45.642;13.806;2023-05-21T13:32:46;31.00;98.00
36444;DHT22;24692;45.642;13.806;2023-05-21T13:35:12;30.20;98.70
36444;DHT22;24692;45.642;13.806;2023-05-21T13:37:39;29.90;98.90
36444;DHT22;24692;45.642;13.806;2023-05-21T13:40:11;29.90;99.60
36444;DHT22;24692;45.642;13.806;2023-05-21T13:42:45;30.40;99.70
36444;DHT22;24692;45.642;13.806;2023-05-21T13:45:13;31.40;98.50
36444;DHT22;24692;45.642;13.806;2023-05-21T13:47:39;31.50;98.10
36444;DHT22;24692;45.642;13.806;2023-05-21T13:50:06;32.20;98.10
36444;DHT22;24692;45.642;13.806;2023-05-21T13:52:31;33.00;98.00
36444;DHT22;24692;45.642;13.806;2023-05-21T13:54:57;33.70;96.40
36444;DHT22;24692;45.642;13.806;2023-05-21T13:57:23;34.20;97.20
36444;DHT22;24692;45.642;13.806;2023-05-21T13:59:51;35.00;96.40
36444;DHT22;24692;45.642;13.806;2023-05-21T14:02:17;34.30;95.60
36444;DHT22;24692;45.642;13.806;2023-05-21T14:04:43;34.00;95.30
36444;DHT22;24692;45.642;13.806;2023-05-21T14:07:09;33.90;95.80
36444;DHT22;24692;45.642;13.806;2023-05-21T14:09:35;33.70;95.50
36444;DHT22;24692;45.642;13.806;2023-05-21T14:12:01;33.30;95.20
36444;DHT22;24692;45.642;13.806;2023-05-21T14:14:29;32.30;96.10
36444;DHT22;24692;45.642;13.806;2023-05-21T14:16:55;32.40;96.00
36444;DHT22;24692;45.642;13.806;2023-05-21T14:19:21;33.00;96.90
36444;DHT22;24692;45.642;13.806;2023-05-21T14:21:47;33.10;95.40
36444;DHT22;24692;45.642;13.806;2023-05-21T14:24:12;33.10;95.50
36444;DHT22;24692;45.642;13.806;2023-05-21T14:26:41;33.60;95.70
36444;DHT22;24692;45.642;13.806;2023-05-21T14:29:07;34.40;95.00
36444;DHT22;24692;45.642;13.806;2023-05-21T14:31:34;34.80;92.90
36444;DHT22;24692;45.642;13.806;2023-05-21T14:34:00;34.20;93.70
36444;DHT22;24692;45.642;13.806;2023-05-21T14:36:27;34.30;94.10
36444;DHT22;24692;45.642;13.806;2023-05-21T14:38:53;33.60;94.30
36444;DHT22;24692;45.642;13.806;2023-05-21T14:41:19;33.30;94.60
36444;DHT22;24692;45.642;13.806;2023-05-21T14:43:46;34.00;95.30
36444;DHT22;24692;45.642;13.806;2023-05-21T14:46:12;34.60;94.80
36444;DHT22;24692;45.642;13.806;2023-05-21T14:48:37;34.50;94.30
36444;DHT22;24692;45.642;13.806;2023-05-21T14:51:03;33.60;94.70
36444;DHT22;24692;45.642;13.806;2023-05-21T14:53:28;33.70;95.20
36444;DHT22;24692;45.642;13.806;2023-05-21T14:55:54;33.80;95.20
36444;DHT22;24692;45.642;13.806;2023-05-21T14:58:20;33.00;95.00
36444;DHT22;24692;45.642;13.806;2023-05-21T15:00:45;32.30;95.30
36444;DHT22;24692;45.642;13.806;2023-05-21T15:03:11;32.60;95.20
36444;DHT22;24692;45.642;13.806;2023-05-21T15:05:37;32.90;95.10
36444;DHT22;24692;45.642;13.806;2023-05-21T15:08:03;32.50;94.60
36444;DHT22;24692;45.642;13.806;2023-05-21T15:10:30;32.40;94.70
36444;DHT22;24692;45.642;13.806;2023-05-21T15:12:55;32.50;95.50
36444;DHT22;24692;45.642;13.806;2023-05-21T15:15:21;32.80;94.70
36444;DHT22;24692;45.642;13.806;2023-05-21T15:17:47;32.30;95.20
36444;DHT22;24692;45.642;13.806;2023-05-21T15:20:14;32.40;94.60
36444;DHT22;24692;45.642;13.806;2023-05-21T15:22:39;32.20;94.70
36444;DHT22;24692;45.642;13.806;2023-05-21T15:25:06;31.50;94.70
36444;DHT22;24692;45.642;13.806;2023-05-21T15:27:32;31.50;95.60
36444;DHT22;24692;45.642;13.806;2023-05-21T15:29:58;31.70;95.30
36444;DHT22;24692;45.642;13.806;2023-05-21T15:32:24;31.80;95.50